sensor_id;sensor_type;location;lat;lon;timestamp;P1;durP1;ratioP1;P2;durP2;ratioP2
9698;SDS011;10089;47.876;8.346;2023-07-02T00:01:42;2.83;;;2.55;;
9698;SDS011;10089;47.876;8.346;2023-07-02T00:04:08;2.97;;;2.50;;
9698;SDS011;10089;47.876;8.346;2023-07-02T00:06:34;3.67;;;2.13;;
9698;SDS011;10089;47.876;8.346;2023-07-02T00:09:05;3.10;;;2.35;;
9698;SDS011;10089;47.876;8.346;2023-07-02T00:11:31;2.67;;;2.47;;
9698;SDS011;10089;47.876;8.346;2023-07-02T00:13:57;4.90;;;2.00;;
9698;SDS011;10089;47.876;8.346;2023-07-02T00:16:22;3.03;;;2.17;;
9698;SDS011;10089;47.876;8.346;2023-07-02T00:18:48;2.28;;;2.08;;
9698;SDS011;10089;47.876;8.346;2023-07-02T00:21:17;2.30;;;2.10;;
9698;SDS011;10089;47.876;8.346;2023-07-02T00:23:44;2.60;;;2.20;;
9698;SDS011;10089;47.876;8.346;2023-07-02T00:26:09;2.20;;;2.00;;
9698;SDS011;10089;47.876;8.346;2023-07-02T00:28:35;2.65;;;2.00;;
9698;SDS011;10089;47.876;8.346;2023-07-02T00:31:00;3.83;;;2.50;;
9698;SDS011;10089;47.876;8.346;2023-07-02T00:33:27;2.50;;;2.03;;
9698;SDS011;10089;47.876;8.346;2023-07-02T00:35:54;2.65;;;2.25;;
9698;SDS011;10089;47.876;8.346;2023-07-02T00:38:19;2.67;;;2.13;;
9698;SDS011;10089;47.876;8.346;2023-07-02T00:40:45;2.25;;;2.05;;
9698;SDS011;10089;47.876;8.346;2023-07-02T00:43:11;2.20;;;1.92;;
9698;SDS011;10089;47.876;8.346;2023-07-02T00:45:38;1.88;;;1.75;;
9698;SDS011;10089;47.876;8.346;2023-07-02T00:48:05;2.42;;;2.17;;
9698;SDS011;10089;47.876;8.346;2023-07-02T00:50:31;2.35;;;2.15;;
9698;SDS011;10089;47.876;8.346;2023-07-02T00:52:57;3.88;;;2.00;;
9698;SDS011;10089;47.876;8.346;2023-07-02T00:55:23;2.33;;;2.13;;
9698;SDS011;10089;47.876;8.346;2023-07-02T00:57:48;3.58;;;2.60;;
9698;SDS011;10089;47.876;8.346;2023-07-02T01:00:14;2.30;;;2.10;;
9698;SDS011;10089;47.876;8.346;2023-07-02T01:02:40;2.67;;;2.20;;
9698;SDS011;10089;47.876;8.346;2023-07-02T01:05:15;2.90;;;2.53;;
9698;SDS011;10089;47.876;8.346;2023-07-02T01:07:41;2.65;;;2.40;;
9698;SDS011;10089;47.876;8.346;2023-07-02T01:10:06;6.85;;;2.42;;
9698;SDS011;10089;47.876;8.346;2023-07-02T01:12:33;3.08;;;2.50;;
9698;SDS011;10089;47.876;8.346;2023-07-02T01:15:00;2.45;;;2.08;;
9698;SDS011;10089;47.876;8.346;2023-07-02T01:17:28;4.38;;;2.38;;
9698;SDS011;10089;47.876;8.346;2023-07-02T01:20:02;2.90;;;2.42;;
9698;SDS011;10089;47.876;8.346;2023-07-02T01:22:30;6.03;;;2.83;;
9698;SDS011;10089;47.876;8.346;2023-07-02T01:24:56;3.20;;;2.70;;
9698;SDS011;10089;47.876;8.346;2023-07-02T01:27:22;4.22;;;2.70;;
9698;SDS011;10089;47.876;8.346;2023-07-02T01:29:51;2.70;;;2.50;;
9698;SDS011;10089;47.876;8.346;2023-07-02T01:32:17;3.50;;;2.30;;
9698;SDS011;10089;47.876;8.346;2023-07-02T01:34:42;2.72;;;2.50;;
9698;SDS011;10089;47.876;8.346;2023-07-02T01:37:17;3.25;;;2.70;;
9698;SDS011;10089;47.876;8.346;2023-07-02T01:39:43;2.85;;;2.65;;
9698;SDS011;10089;47.876;8.346;2023-07-02T01:42:10;3.15;;;2.63;;
9698;SDS011;10089;47.876;8.346;2023-07-02T01:44:38;3.88;;;2.83;;
9698;SDS011;10089;47.876;8.346;2023-07-02T01:47:04;2.95;;;2.60;;
9698;SDS011;10089;47.876;8.346;2023-07-02T01:49:30;4.43;;;2.55;;
9698;SDS011;10089;47.876;8.346;2023-07-02T01:51:56;2.83;;;2.50;;
9698;SDS011;10089;47.876;8.346;2023-07-02T01:54:23;3.90;;;2.70;;
9698;SDS011;10089;47.876;8.346;2023-07-02T01:56:52;3.08;;;2.78;;
9698;SDS011;10089;47.876;8.346;2023-07-02T01:59:18;3.50;;;3.00;;
9698;SDS011;10089;47.876;8.346;2023-07-02T02:01:43;3.28;;;2.97;;
9698;SDS011;10089;47.876;8.346;2023-07-02T02:04:10;5.82;;;2.90;;
9698;SDS011;10089;47.876;8.346;2023-07-02T02:06:36;3.53;;;2.97;;
9698;SDS011;10089;47.876;8.346;2023-07-02T02:09:03;7.93;;;3.20;;
9698;SDS011;10089;47.876;8.346;2023-07-02T02:11:30;3.85;;;3.40;;
9698;SDS011;10089;47.876;8.346;2023-07-02T02:13:57;5.18;;;3.17;;
9698;SDS011;10089;47.876;8.346;2023-07-02T02:16:23;3.50;;;3.05;;
9698;SDS011;10089;47.876;8.346;2023-07-02T02:18:49;4.32;;;2.83;;
9698;SDS011;10089;47.876;8.346;2023-07-02T02:21:17;3.63;;;3.25;;
9698;SDS011;10089;47.876;8.346;2023-07-02T02:23:43;3.47;;;3.13;;
9698;SDS011;10089;47.876;8.346;2023-07-02T02:26:09;6.68;;;3.38;;
9698;SDS011;10089;47.876;8.346;2023-07-02T02:28:35;3.55;;;3.25;;
9698;SDS011;10089;47.876;8.346;2023-07-02T02:31:01;4.40;;;3.17;;
9698;SDS011;10089;47.876;8.346;2023-07-02T02:33:27;6.22;;;2.95;;
9698;SDS011;10089;47.876;8.346;2023-07-02T02:35:53;3.50;;;2.95;;
9698;SDS011;10089;47.876;8.346;2023-07-02T02:38:18;3.70;;;3.28;;
9698;SDS011;10089;47.876;8.346;2023-07-02T02:40:44;3.65;;;3.28;;
9698;SDS011;10089;47.876;8.346;2023-07-02T02:43:10;3.70;;;3.20;;
9698;SDS011;10089;47.876;8.346;2023-07-02T02:45:35;3.75;;;3.30;;
9698;SDS011;10089;47.876;8.346;2023-07-02T02:48:01;5.97;;;3.80;;
9698;SDS011;10089;47.876;8.346;2023-07-02T02:50:26;6.88;;;3.40;;
9698;SDS011;10089;47.876;8.346;2023-07-02T02:52:52;4.75;;;3.78;;
9698;SDS011;10089;47.876;8.346;2023-07-02T02:55:18;5.72;;;4.20;;
9698;SDS011;10089;47.876;8.346;2023-07-02T02:57:44;4.90;;;3.72;;
9698;SDS011;10089;47.876;8.346;2023-07-02T03:00:10;4.05;;;3.65;;
9698;SDS011;10089;47.876;8.346;2023-07-02T03:02:36;7.00;;;3.95;;
9698;SDS011;10089;47.876;8.346;2023-07-02T03:05:04;4.25;;;3.55;;
9698;SDS011;10089;47.876;8.346;2023-07-02T03:07:31;4.78;;;3.95;;
9698;SDS011;10089;47.876;8.346;2023-07-02T03:09:57;4.78;;;4.05;;
9698;SDS011;10089;47.876;8.346;2023-07-02T03:12:23;5.03;;;3.70;;
9698;SDS011;10089;47.876;8.346;2023-07-02T03:14:50;4.68;;;4.00;;
9698;SDS011;10089;47.876;8.346;2023-07-02T03:17:19;7.07;;;4.07;;
9698;SDS011;10089;47.876;8.346;2023-07-02T03:19:45;4.43;;;3.92;;
9698;SDS011;10089;47.876;8.346;2023-07-02T03:22:11;4.43;;;3.45;;
9698;SDS011;10089;47.876;8.346;2023-07-02T03:24:37;5.18;;;3.92;;
9698;SDS011;10089;47.876;8.346;2023-07-02T03:27:03;4.97;;;3.90;;
9698;SDS011;10089;47.876;8.346;2023-07-02T03:29:29;5.13;;;4.13;;
9698;SDS011;10089;47.876;8.346;2023-07-02T03:31:54;5.13;;;3.85;;
9698;SDS011;10089;47.876;8.346;2023-07-02T03:34:20;5.55;;;4.13;;
9698;SDS011;10089;47.876;8.346;2023-07-02T03:36:47;5.85;;;3.90;;
9698;SDS011;10089;47.876;8.346;2023-07-02T03:39:13;7.72;;;3.63;;
9698;SDS011;10089;47.876;8.346;2023-07-02T03:41:38;5.15;;;3.65;;
9698;SDS011;10089;47.876;8.346;2023-07-02T03:44:04;8.23;;;4.15;;
9698;SDS011;10089;47.876;8.346;2023-07-02T03:46:30;4.38;;;3.42;;
9698;SDS011;10089;47.876;8.346;2023-07-02T03:48:56;6.53;;;4.40;;
9698;SDS011;10089;47.876;8.346;2023-07-02T03:51:22;5.03;;;3.90;;
9698;SDS011;10089;47.876;8.346;2023-07-02T03:53:47;6.10;;;4.25;;
9698;SDS011;10089;47.876;8.346;2023-07-02T03:56:13;4.68;;;3.65;;
9698;SDS011;10089;47.876;8.346;2023-07-02T03:58:42;5.80;;;4.28;;
9698;SDS011;10089;47.876;8.346;2023-07-02T04:01:08;8.90;;;4.80;;
9698;SDS011;10089;47.876;8.346;2023-07-02T04:03:33;6.28;;;4.55;;
9698;SDS011;10089;47.876;8.346;2023-07-02T04:05:59;6.35;;;4.10;;
9698;SDS011;10089;47.876;8.346;2023-07-02T04:08:25;6.55;;;4.20;;
9698;SDS011;10089;47.876;8.346;2023-07-02T04:10:53;6.18;;;3.83;;
9698;SDS011;10089;47.876;8.346;2023-07-02T04:13:19;8.13;;;4.85;;
9698;SDS011;10089;47.876;8.346;2023-07-02T04:15:45;6.30;;;4.25;;
9698;SDS011;10089;47.876;8.346;2023-07-02T04:18:10;5.95;;;4.03;;
9698;SDS011;10089;47.876;8.346;2023-07-02T04:20:36;6.65;;;4.40;;
9698;SDS011;10089;47.876;8.346;2023-07-02T04:23:04;8.63;;;4.43;;
9698;SDS011;10089;47.876;8.346;2023-07-02T04:25:30;6.28;;;4.53;;
9698;SDS011;10089;47.876;8.346;2023-07-02T04:27:56;5.05;;;4.20;;
9698;SDS011;10089;47.876;8.346;2023-07-02T04:30:23;6.25;;;4.80;;
9698;SDS011;10089;47.876;8.346;2023-07-02T04:32:49;6.28;;;4.60;;
9698;SDS011;10089;47.876;8.346;2023-07-02T04:35:15;6.15;;;4.40;;
9698;SDS011;10089;47.876;8.346;2023-07-02T04:37:41;9.60;;;6.20;;
9698;SDS011;10089;47.876;8.346;2023-07-02T04:40:07;9.13;;;5.97;;
9698;SDS011;10089;47.876;8.346;2023-07-02T04:42:36;11.25;;;6.75;;
9698;SDS011;10089;47.876;8.346;2023-07-02T04:45:05;10.45;;;6.15;;
9698;SDS011;10089;47.876;8.346;2023-07-02T04:47:33;10.43;;;7.28;;
9698;SDS011;10089;47.876;8.346;2023-07-02T04:50:02;16.85;;;9.50;;
9698;SDS011;10089;47.876;8.346;2023-07-02T04:52:27;12.80;;;8.10;;
9698;SDS011;10089;47.876;8.346;2023-07-02T04:54:53;17.35;;;8.95;;
9698;SDS011;10089;47.876;8.346;2023-07-02T04:57:21;13.23;;;9.20;;
9698;SDS011;10089;47.876;8.346;2023-07-02T04:59:46;13.60;;;9.30;;
9698;SDS011;10089;47.876;8.346;2023-07-02T05:02:12;11.43;;;8.60;;
9698;SDS011;10089;47.876;8.346;2023-07-02T05:04:38;22.27;;;10.88;;
9698;SDS011;10089;47.876;8.346;2023-07-02T05:07:03;15.35;;;10.65;;
9698;SDS011;10089;47.876;8.346;2023-07-02T05:09:29;19.75;;;11.95;;
9698;SDS011;10089;47.876;8.346;2023-07-02T05:11:55;18.88;;;11.43;;
9698;SDS011;10089;47.876;8.346;2023-07-02T05:14:21;16.85;;;11.07;;
9698;SDS011;10089;47.876;8.346;2023-07-02T05:16:47;18.60;;;11.38;;
9698;SDS011;10089;47.876;8.346;2023-07-02T05:19:13;24.00;;;12.63;;
9698;SDS011;10089;47.876;8.346;2023-07-02T05:21:39;23.85;;;12.73;;
9698;SDS011;10089;47.876;8.346;2023-07-02T05:24:05;23.92;;;12.20;;
9698;SDS011;10089;47.876;8.346;2023-07-02T05:26:31;22.17;;;13.25;;
9698;SDS011;10089;47.876;8.346;2023-07-02T05:28:57;23.13;;;13.02;;
9698;SDS011;10089;47.876;8.346;2023-07-02T05:31:23;26.23;;;13.45;;
9698;SDS011;10089;47.876;8.346;2023-07-02T05:33:48;23.75;;;13.88;;
9698;SDS011;10089;47.876;8.346;2023-07-02T05:36:14;22.83;;;13.82;;
9698;SDS011;10089;47.876;8.346;2023-07-02T05:38:45;20.02;;;13.07;;
9698;SDS011;10089;47.876;8.346;2023-07-02T05:41:11;28.73;;;13.15;;
9698;SDS011;10089;47.876;8.346;2023-07-02T05:43:43;28.10;;;14.77;;
9698;SDS011;10089;47.876;8.346;2023-07-02T05:46:09;25.13;;;13.75;;
9698;SDS011;10089;47.876;8.346;2023-07-02T05:48:34;28.13;;;14.88;;
9698;SDS011;10089;47.876;8.346;2023-07-02T05:51:00;24.55;;;13.98;;
9698;SDS011;10089;47.876;8.346;2023-07-02T05:53:27;30.75;;;15.27;;
9698;SDS011;10089;47.876;8.346;2023-07-02T05:55:52;30.20;;;14.43;;
9698;SDS011;10089;47.876;8.346;2023-07-02T05:58:18;28.63;;;15.07;;
9698;SDS011;10089;47.876;8.346;2023-07-02T06:00:44;30.35;;;14.13;;
9698;SDS011;10089;47.876;8.346;2023-07-02T06:03:14;23.50;;;13.85;;
9698;SDS011;10089;47.876;8.346;2023-07-02T06:05:44;26.33;;;14.48;;
9698;SDS011;10089;47.876;8.346;2023-07-02T06:08:14;26.55;;;14.77;;
9698;SDS011;10089;47.876;8.346;2023-07-02T06:10:43;22.85;;;14.82;;
9698;SDS011;10089;47.876;8.346;2023-07-02T06:13:12;21.98;;;13.68;;
9698;SDS011;10089;47.876;8.346;2023-07-02T06:15:38;29.88;;;15.68;;
9698;SDS011;10089;47.876;8.346;2023-07-02T06:18:04;23.52;;;14.50;;
9698;SDS011;10089;47.876;8.346;2023-07-02T06:20:30;24.73;;;15.00;;
9698;SDS011;10089;47.876;8.346;2023-07-02T06:22:55;30.13;;;14.35;;
9698;SDS011;10089;47.876;8.346;2023-07-02T06:25:21;28.52;;;15.75;;
9698;SDS011;10089;47.876;8.346;2023-07-02T06:27:47;25.20;;;15.07;;
9698;SDS011;10089;47.876;8.346;2023-07-02T06:30:12;26.88;;;14.82;;
9698;SDS011;10089;47.876;8.346;2023-07-02T06:32:38;30.17;;;15.98;;
9698;SDS011;10089;47.876;8.346;2023-07-02T06:35:04;26.88;;;14.35;;
9698;SDS011;10089;47.876;8.346;2023-07-02T06:37:31;32.63;;;16.55;;
9698;SDS011;10089;47.876;8.346;2023-07-02T06:39:57;25.00;;;13.30;;
9698;SDS011;10089;47.876;8.346;2023-07-02T06:42:22;22.52;;;15.15;;
9698;SDS011;10089;47.876;8.346;2023-07-02T06:44:49;28.30;;;14.70;;
9698;SDS011;10089;47.876;8.346;2023-07-02T06:47:14;25.15;;;15.00;;
9698;SDS011;10089;47.876;8.346;2023-07-02T06:49:40;33.22;;;14.60;;
9698;SDS011;10089;47.876;8.346;2023-07-02T06:52:05;27.67;;;14.55;;
9698;SDS011;10089;47.876;8.346;2023-07-02T06:54:31;28.13;;;14.80;;
9698;SDS011;10089;47.876;8.346;2023-07-02T06:56:56;24.83;;;14.52;;
9698;SDS011;10089;47.876;8.346;2023-07-02T06:59:22;23.15;;;14.60;;
9698;SDS011;10089;47.876;8.346;2023-07-02T07:01:49;25.00;;;15.65;;
9698;SDS011;10089;47.876;8.346;2023-07-02T07:04:15;29.48;;;15.15;;
9698;SDS011;10089;47.876;8.346;2023-07-02T07:06:41;27.15;;;14.77;;
9698;SDS011;10089;47.876;8.346;2023-07-02T07:09:07;30.15;;;15.10;;
9698;SDS011;10089;47.876;8.346;2023-07-02T07:11:33;28.52;;;15.50;;
9698;SDS011;10089;47.876;8.346;2023-07-02T07:13:59;28.35;;;15.73;;
9698;SDS011;10089;47.876;8.346;2023-07-02T07:16:24;26.15;;;14.45;;
9698;SDS011;10089;47.876;8.346;2023-07-02T07:18:50;33.45;;;15.70;;
9698;SDS011;10089;47.876;8.346;2023-07-02T07:21:15;48.92;;;22.63;;
9698;SDS011;10089;47.876;8.346;2023-07-02T07:23:41;32.97;;;17.20;;
9698;SDS011;10089;47.876;8.346;2023-07-02T07:26:07;27.55;;;15.93;;
9698;SDS011;10089;47.876;8.346;2023-07-02T07:28:32;30.15;;;17.08;;
9698;SDS011;10089;47.876;8.346;2023-07-02T07:30:58;28.60;;;16.17;;
9698;SDS011;10089;47.876;8.346;2023-07-02T07:33:23;29.70;;;16.85;;
9698;SDS011;10089;47.876;8.346;2023-07-02T07:35:49;30.58;;;16.67;;
9698;SDS011;10089;47.876;8.346;2023-07-02T07:38:15;27.60;;;15.75;;
9698;SDS011;10089;47.876;8.346;2023-07-02T07:40:41;27.50;;;17.27;;
9698;SDS011;10089;47.876;8.346;2023-07-02T07:43:07;30.63;;;16.45;;
9698;SDS011;10089;47.876;8.346;2023-07-02T07:45:33;26.52;;;17.10;;
9698;SDS011;10089;47.876;8.346;2023-07-02T07:47:59;30.35;;;17.48;;
9698;SDS011;10089;47.876;8.346;2023-07-02T07:50:25;29.17;;;16.98;;
9698;SDS011;10089;47.876;8.346;2023-07-02T07:52:50;29.80;;;17.05;;
9698;SDS011;10089;47.876;8.346;2023-07-02T07:55:16;28.13;;;15.50;;
9698;SDS011;10089;47.876;8.346;2023-07-02T07:57:42;31.92;;;17.00;;
9698;SDS011;10089;47.876;8.346;2023-07-02T08:00:08;28.23;;;17.45;;
9698;SDS011;10089;47.876;8.346;2023-07-02T08:02:37;28.20;;;16.13;;
9698;SDS011;10089;47.876;8.346;2023-07-02T08:05:03;28.17;;;15.95;;
9698;SDS011;10089;47.876;8.346;2023-07-02T08:07:30;25.27;;;15.00;;
9698;SDS011;10089;47.876;8.346;2023-07-02T08:09:56;24.75;;;13.95;;
9698;SDS011;10089;47.876;8.346;2023-07-02T08:12:22;27.52;;;15.35;;
9698;SDS011;10089;47.876;8.346;2023-07-02T08:14:49;26.50;;;15.98;;
9698;SDS011;10089;47.876;8.346;2023-07-02T08:17:14;24.15;;;14.68;;
9698;SDS011;10089;47.876;8.346;2023-07-02T08:19:40;28.67;;;16.00;;
9698;SDS011;10089;47.876;8.346;2023-07-02T08:22:06;30.83;;;16.30;;
9698;SDS011;10089;47.876;8.346;2023-07-02T08:24:31;27.85;;;15.82;;
9698;SDS011;10089;47.876;8.346;2023-07-02T08:26:57;25.85;;;15.05;;
9698;SDS011;10089;47.876;8.346;2023-07-02T08:29:23;27.25;;;15.60;;
9698;SDS011;10089;47.876;8.346;2023-07-02T08:31:49;22.42;;;14.45;;
9698;SDS011;10089;47.876;8.346;2023-07-02T08:34:14;21.90;;;15.05;;
9698;SDS011;10089;47.876;8.346;2023-07-02T08:36:40;23.50;;;14.55;;
9698;SDS011;10089;47.876;8.346;2023-07-02T08:39:08;24.45;;;14.90;;
9698;SDS011;10089;47.876;8.346;2023-07-02T08:41:42;26.35;;;15.85;;
9698;SDS011;10089;47.876;8.346;2023-07-02T08:44:09;21.83;;;14.50;;
9698;SDS011;10089;47.876;8.346;2023-07-02T08:46:36;25.83;;;14.15;;
9698;SDS011;10089;47.876;8.346;2023-07-02T08:49:02;23.83;;;14.15;;
9698;SDS011;10089;47.876;8.346;2023-07-02T08:51:27;22.48;;;14.80;;
9698;SDS011;10089;47.876;8.346;2023-07-02T08:53:53;26.70;;;14.07;;
9698;SDS011;10089;47.876;8.346;2023-07-02T08:56:19;22.77;;;13.52;;
9698;SDS011;10089;47.876;8.346;2023-07-02T08:58:45;21.75;;;13.23;;
9698;SDS011;10089;47.876;8.346;2023-07-02T09:01:12;24.17;;;13.80;;
9698;SDS011;10089;47.876;8.346;2023-07-02T09:03:39;22.50;;;14.10;;
9698;SDS011;10089;47.876;8.346;2023-07-02T09:06:07;27.20;;;14.07;;
9698;SDS011;10089;47.876;8.346;2023-07-02T09:08:33;24.10;;;14.73;;
9698;SDS011;10089;47.876;8.346;2023-07-02T09:11:06;21.65;;;13.35;;
9698;SDS011;10089;47.876;8.346;2023-07-02T09:24:20;21.98;;;13.85;;
9698;SDS011;10089;47.876;8.346;2023-07-02T09:26:48;21.92;;;12.70;;
9698;SDS011;10089;47.876;8.346;2023-07-02T09:29:20;19.67;;;11.32;;
9698;SDS011;10089;47.876;8.346;2023-07-02T09:31:54;17.70;;;11.32;;
9698;SDS011;10089;47.876;8.346;2023-07-02T09:34:31;16.25;;;11.48;;
9698;SDS011;10089;47.876;8.346;2023-07-02T09:36:58;22.75;;;11.88;;
9698;SDS011;10089;47.876;8.346;2023-07-02T09:39:27;17.60;;;11.38;;
9698;SDS011;10089;47.876;8.346;2023-07-02T09:42:00;19.42;;;11.55;;
9698;SDS011;10089;47.876;8.346;2023-07-02T09:44:30;17.67;;;11.80;;
9698;SDS011;10089;47.876;8.346;2023-07-02T09:47:07;16.13;;;10.80;;
9698;SDS011;10089;47.876;8.346;2023-07-02T09:52:07;16.17;;;9.90;;
9698;SDS011;10089;47.876;8.346;2023-07-02T09:54:33;15.82;;;10.43;;
9698;SDS011;10089;47.876;8.346;2023-07-02T09:56:59;15.85;;;10.18;;
9698;SDS011;10089;47.876;8.346;2023-07-02T09:59:26;14.13;;;9.00;;
9698;SDS011;10089;47.876;8.346;2023-07-02T10:01:52;14.75;;;9.35;;
9698;SDS011;10089;47.876;8.346;2023-07-02T10:04:19;14.27;;;9.48;;
9698;SDS011;10089;47.876;8.346;2023-07-02T10:07:03;14.73;;;10.02;;
9698;SDS011;10089;47.876;8.346;2023-07-02T10:09:39;12.63;;;8.82;;
9698;SDS011;10089;47.876;8.346;2023-07-02T10:12:17;15.05;;;8.77;;
9698;SDS011;10089;47.876;8.346;2023-07-02T10:14:48;15.32;;;8.68;;
9698;SDS011;10089;47.876;8.346;2023-07-02T10:19:56;16.73;;;8.75;;
9698;SDS011;10089;47.876;8.346;2023-07-02T10:22:23;14.75;;;8.82;;
9698;SDS011;10089;47.876;8.346;2023-07-02T10:24:55;16.15;;;9.35;;
9698;SDS011;10089;47.876;8.346;2023-07-02T10:27:34;13.95;;;9.07;;
9698;SDS011;10089;47.876;8.346;2023-07-02T10:30:04;15.07;;;9.82;;
9698;SDS011;10089;47.876;8.346;2023-07-02T10:32:31;14.50;;;8.07;;
9698;SDS011;10089;47.876;8.346;2023-07-02T10:34:59;12.82;;;8.95;;
9698;SDS011;10089;47.876;8.346;2023-07-02T10:37:27;12.18;;;8.23;;
9698;SDS011;10089;47.876;8.346;2023-07-02T10:40:02;11.40;;;7.97;;
9698;SDS011;10089;47.876;8.346;2023-07-02T10:42:31;11.48;;;8.63;;
9698;SDS011;10089;47.876;8.346;2023-07-02T10:44:59;11.15;;;7.57;;
9698;SDS011;10089;47.876;8.346;2023-07-02T10:47:24;14.32;;;8.07;;
9698;SDS011;10089;47.876;8.346;2023-07-02T10:49:50;11.32;;;7.70;;
9698;SDS011;10089;47.876;8.346;2023-07-02T10:52:15;13.65;;;7.57;;
9698;SDS011;10089;47.876;8.346;2023-07-02T10:54:45;10.90;;;7.28;;
9698;SDS011;10089;47.876;8.346;2023-07-02T10:57:15;12.35;;;7.47;;
9698;SDS011;10089;47.876;8.346;2023-07-02T10:59:45;11.68;;;7.20;;
9698;SDS011;10089;47.876;8.346;2023-07-02T11:02:11;11.27;;;7.75;;
9698;SDS011;10089;47.876;8.346;2023-07-02T11:04:36;12.32;;;7.75;;
9698;SDS011;10089;47.876;8.346;2023-07-02T11:07:03;8.80;;;6.03;;
9698;SDS011;10089;47.876;8.346;2023-07-02T11:09:29;12.23;;;7.40;;
9698;SDS011;10089;47.876;8.346;2023-07-02T11:11:56;11.73;;;7.65;;
9698;SDS011;10089;47.876;8.346;2023-07-02T11:14:26;9.82;;;6.68;;
9698;SDS011;10089;47.876;8.346;2023-07-02T11:16:56;12.52;;;7.05;;
9698;SDS011;10089;47.876;8.346;2023-07-02T11:19:23;14.35;;;7.38;;
9698;SDS011;10089;47.876;8.346;2023-07-02T11:21:56;9.13;;;6.68;;
9698;SDS011;10089;47.876;8.346;2023-07-02T11:24:33;9.00;;;6.18;;
9698;SDS011;10089;47.876;8.346;2023-07-02T11:27:05;10.70;;;7.28;;
9698;SDS011;10089;47.876;8.346;2023-07-02T11:29:31;10.38;;;6.45;;
9698;SDS011;10089;47.876;8.346;2023-07-02T11:32:07;10.52;;;6.60;;
9698;SDS011;10089;47.876;8.346;2023-07-02T11:34:37;10.65;;;6.50;;
9698;SDS011;10089;47.876;8.346;2023-07-02T11:37:03;12.07;;;6.35;;
9698;SDS011;10089;47.876;8.346;2023-07-02T11:39:30;8.30;;;6.07;;
9698;SDS011;10089;47.876;8.346;2023-07-02T11:41:56;10.00;;;6.40;;
9698;SDS011;10089;47.876;8.346;2023-07-02T11:44:22;8.73;;;5.13;;
9698;SDS011;10089;47.876;8.346;2023-07-02T11:46:47;8.88;;;5.57;;
9698;SDS011;10089;47.876;8.346;2023-07-02T11:49:13;7.50;;;5.68;;
9698;SDS011;10089;47.876;8.346;2023-07-02T11:51:40;9.20;;;5.78;;
9698;SDS011;10089;47.876;8.346;2023-07-02T11:54:07;9.52;;;5.18;;
9698;SDS011;10089;47.876;8.346;2023-07-02T11:56:33;7.70;;;5.40;;
9698;SDS011;10089;47.876;8.346;2023-07-02T11:58:59;8.43;;;5.88;;
9698;SDS011;10089;47.876;8.346;2023-07-02T12:01:25;6.65;;;4.90;;
9698;SDS011;10089;47.876;8.346;2023-07-02T12:03:50;9.88;;;5.88;;
9698;SDS011;10089;47.876;8.346;2023-07-02T12:06:16;8.63;;;5.57;;
9698;SDS011;10089;47.876;8.346;2023-07-02T12:08:42;8.18;;;5.75;;
9698;SDS011;10089;47.876;8.346;2023-07-02T12:11:07;8.45;;;5.40;;
9698;SDS011;10089;47.876;8.346;2023-07-02T12:13:33;6.18;;;4.90;;
9698;SDS011;10089;47.876;8.346;2023-07-02T12:15:59;9.23;;;5.63;;
9698;SDS011;10089;47.876;8.346;2023-07-02T12:18:24;7.28;;;5.20;;
9698;SDS011;10089;47.876;8.346;2023-07-02T12:20:50;8.40;;;5.85;;
9698;SDS011;10089;47.876;8.346;2023-07-02T12:23:15;7.85;;;5.18;;
9698;SDS011;10089;47.876;8.346;2023-07-02T12:25:41;10.00;;;5.43;;
9698;SDS011;10089;47.876;8.346;2023-07-02T12:28:07;9.68;;;5.28;;
9698;SDS011;10089;47.876;8.346;2023-07-02T12:30:32;6.97;;;5.00;;
9698;SDS011;10089;47.876;8.346;2023-07-02T12:32:58;7.43;;;4.43;;
9698;SDS011;10089;47.876;8.346;2023-07-02T12:35:24;7.70;;;4.72;;
9698;SDS011;10089;47.876;8.346;2023-07-02T12:37:50;8.25;;;5.22;;
9698;SDS011;10089;47.876;8.346;2023-07-02T12:40:18;10.27;;;5.72;;
9698;SDS011;10089;47.876;8.346;2023-07-02T12:42:45;7.88;;;5.30;;
9698;SDS011;10089;47.876;8.346;2023-07-02T12:45:12;8.85;;;5.85;;
9698;SDS011;10089;47.876;8.346;2023-07-02T12:47:38;10.48;;;5.97;;
9698;SDS011;10089;47.876;8.346;2023-07-02T12:50:05;10.18;;;6.35;;
9698;SDS011;10089;47.876;8.346;2023-07-02T12:52:31;8.13;;;5.40;;
9698;SDS011;10089;47.876;8.346;2023-07-02T12:54:57;8.35;;;6.22;;
9698;SDS011;10089;47.876;8.346;2023-07-02T12:57:23;10.27;;;6.63;;
9698;SDS011;10089;47.876;8.346;2023-07-02T12:59:48;8.55;;;6.00;;
9698;SDS011;10089;47.876;8.346;2023-07-02T13:02:14;7.85;;;5.78;;
9698;SDS011;10089;47.876;8.346;2023-07-02T13:04:40;8.90;;;5.72;;
9698;SDS011;10089;47.876;8.346;2023-07-02T13:07:05;7.82;;;5.38;;
9698;SDS011;10089;47.876;8.346;2023-07-02T13:09:31;9.00;;;6.35;;
9698;SDS011;10089;47.876;8.346;2023-07-02T13:11:57;8.48;;;6.05;;
9698;SDS011;10089;47.876;8.346;2023-07-02T13:14:22;8.77;;;6.35;;
9698;SDS011;10089;47.876;8.346;2023-07-02T13:16:48;9.25;;;6.30;;
9698;SDS011;10089;47.876;8.346;2023-07-02T13:19:14;9.13;;;6.28;;
9698;SDS011;10089;47.876;8.346;2023-07-02T13:21:40;8.23;;;5.95;;
9698;SDS011;10089;47.876;8.346;2023-07-02T13:24:06;9.60;;;6.43;;
9698;SDS011;10089;47.876;8.346;2023-07-02T13:26:32;13.07;;;7.10;;
9698;SDS011;10089;47.876;8.346;2023-07-02T13:28:57;10.98;;;7.07;;
9698;SDS011;10089;47.876;8.346;2023-07-02T13:31:23;9.10;;;6.65;;
9698;SDS011;10089;47.876;8.346;2023-07-02T13:33:49;9.15;;;6.68;;
9698;SDS011;10089;47.876;8.346;2023-07-02T13:36:15;10.23;;;6.50;;
9698;SDS011;10089;47.876;8.346;2023-07-02T13:38:41;10.18;;;6.50;;
9698;SDS011;10089;47.876;8.346;2023-07-02T13:41:07;10.52;;;7.18;;
9698;SDS011;10089;47.876;8.346;2023-07-02T13:43:33;9.13;;;6.30;;
9698;SDS011;10089;47.876;8.346;2023-07-02T13:45:59;10.98;;;7.65;;
9698;SDS011;10089;47.876;8.346;2023-07-02T13:48:25;10.32;;;6.88;;
9698;SDS011;10089;47.876;8.346;2023-07-02T13:50:50;11.85;;;7.32;;
9698;SDS011;10089;47.876;8.346;2023-07-02T13:53:16;10.30;;;6.88;;
9698;SDS011;10089;47.876;8.346;2023-07-02T13:55:41;10.52;;;7.43;;
9698;SDS011;10089;47.876;8.346;2023-07-02T13:58:07;11.07;;;7.22;;
9698;SDS011;10089;47.876;8.346;2023-07-02T14:00:32;12.57;;;7.60;;
9698;SDS011;10089;47.876;8.346;2023-07-02T14:02:58;13.25;;;8.77;;
9698;SDS011;10089;47.876;8.346;2023-07-02T14:05:24;11.38;;;7.43;;
9698;SDS011;10089;47.876;8.346;2023-07-02T14:07:50;24.67;;;14.43;;
9698;SDS011;10089;47.876;8.346;2023-07-02T14:10:15;12.27;;;8.55;;
9698;SDS011;10089;47.876;8.346;2023-07-02T14:12:41;11.00;;;7.93;;
9698;SDS011;10089;47.876;8.346;2023-07-02T14:15:07;12.98;;;8.73;;
9698;SDS011;10089;47.876;8.346;2023-07-02T14:17:34;12.75;;;8.38;;
9698;SDS011;10089;47.876;8.346;2023-07-02T14:20:00;14.65;;;10.05;;
9698;SDS011;10089;47.876;8.346;2023-07-02T14:22:26;15.30;;;10.15;;
9698;SDS011;10089;47.876;8.346;2023-07-02T14:24:51;15.73;;;9.55;;
9698;SDS011;10089;47.876;8.346;2023-07-02T14:27:17;14.23;;;9.57;;
9698;SDS011;10089;47.876;8.346;2023-07-02T14:29:42;16.40;;;10.93;;
9698;SDS011;10089;47.876;8.346;2023-07-02T14:32:08;21.23;;;11.32;;
9698;SDS011;10089;47.876;8.346;2023-07-02T14:34:34;18.55;;;11.63;;
9698;SDS011;10089;47.876;8.346;2023-07-02T14:37:01;19.00;;;10.73;;
9698;SDS011;10089;47.876;8.346;2023-07-02T14:39:27;19.33;;;10.30;;
9698;SDS011;10089;47.876;8.346;2023-07-02T14:41:53;17.25;;;11.88;;
9698;SDS011;10089;47.876;8.346;2023-07-02T14:44:18;15.32;;;11.50;;
9698;SDS011;10089;47.876;8.346;2023-07-02T14:46:44;17.08;;;11.18;;
9698;SDS011;10089;47.876;8.346;2023-07-02T14:49:09;16.85;;;11.00;;
9698;SDS011;10089;47.876;8.346;2023-07-02T14:51:35;16.75;;;11.43;;
9698;SDS011;10089;47.876;8.346;2023-07-02T14:54:01;18.70;;;11.35;;
9698;SDS011;10089;47.876;8.346;2023-07-02T14:56:28;17.02;;;10.27;;
9698;SDS011;10089;47.876;8.346;2023-07-02T14:58:55;16.27;;;11.23;;
9698;SDS011;10089;47.876;8.346;2023-07-02T15:01:21;17.73;;;11.20;;